Time;durP1;ratioP1;P1;durP2;ratioP2;P2;SDS_P1;SDS_P2;PMS_P1;PMS_P2;Temp;Humidity;BMP_temperature;BMP_pressure;BME280_temperature;BME280_humidity;BME280_pressure;Samples;Min_cycle;Max_cycle;Signal;HPM_P1;HPM_P2
2021/05/28 00:01:40;;;;;;;2.90;2.10;;;11.30;99.90;;;;;;5052894;28;20472;-81
2021/05/28 00:04:07;;;;;;;1.80;1.67;;;11.30;99.90;;;;;;5052872;28;20478;-81
2021/05/28 00:06:34;;;;;;;1.60;1.50;;;11.20;99.90;;;;;;5053186;28;20445;-82
2021/05/28 00:09:00;;;;;;;2.90;2.27;;;11.20;99.90;;;;;;5056840;28;20449;-81
2021/05/28 00:11:26;;;;;;;1.90;1.80;;;11.20;99.90;;;;;;5056464;28;20469;-81
2021/05/28 00:13:52;;;;;;;2.40;2.23;;;11.20;99.90;;;;;;5056770;28;20441;-81
2021/05/28 00:16:18;;;;;;;2.50;2.40;;;11.10;99.90;;;;;;5056389;28;20809;-82
2021/05/28 00:18:45;;;;;;;2.80;2.57;;;11.10;99.90;;;;;;5056650;28;20456;-81
2021/05/28 00:21:12;;;;;;;2.80;2.60;;;11.00;99.90;;;;;;5056556;28;20461;-81
2021/05/28 00:23:38;;;;;;;7.53;2.93;;;11.00;99.90;;;;;;5056487;28;20449;-75
2021/05/28 00:26:04;;;;;;;3.37;3.10;;;10.90;99.90;;;;;;5056213;28;20825;-75
2021/05/28 00:28:30;;;;;;;5.50;5.00;;;10.90;99.90;;;;;;5056483;28;20505;-75
2021/05/28 00:30:56;;;;;;;5.67;4.87;;;10.90;99.90;;;;;;5056203;28;20465;-75
2021/05/28 00:33:23;;;;;;;5.57;4.90;;;10.90;99.90;;;;;;5056406;28;20449;-75
2021/05/28 00:35:49;;;;;;;6.80;6.10;;;10.90;99.90;;;;;;5056345;28;20492;-75
2021/05/28 00:38:16;;;;;;;8.37;5.83;;;10.90;99.90;;;;;;5056316;28;20452;-75
2021/05/28 00:40:42;;;;;;;6.67;5.70;;;10.90;99.90;;;;;;5056176;28;20524;-75
2021/05/28 00:43:08;;;;;;;5.90;5.17;;;10.90;99.90;;;;;;5055905;28;20445;-75
2021/05/28 00:45:35;;;;;;;7.43;6.70;;;11.00;99.90;;;;;;5056096;28;20481;-78
2021/05/28 00:48:01;;;;;;;7.60;6.37;;;11.00;99.90;;;;;;5056102;28;20449;-78
2021/05/28 00:50:29;;;;;;;7.37;5.90;;;11.00;99.90;;;;;;5055983;28;20549;-78
2021/05/28 00:52:58;;;;;;;7.73;6.83;;;11.00;99.90;;;;;;5056083;28;20468;-79
2021/05/28 00:55:26;;;;;;;7.70;6.90;;;11.10;99.90;;;;;;5056042;28;20477;-78
2021/05/28 00:57:53;;;;;;;8.97;7.00;;;11.00;99.90;;;;;;5055715;28;20880;-78
2021/05/28 01:00:20;;;;;;;8.20;6.77;;;11.00;99.90;;;;;;5055853;28;20972;-78
2021/05/28 01:02:46;;;;;;;11.40;7.33;;;11.00;99.90;;;;;;5055542;28;20865;-78
2021/05/28 01:05:13;;;;;;;9.60;8.00;;;11.00;99.90;;;;;;5055732;28;20478;-78
2021/05/28 01:07:39;;;;;;;10.97;8.03;;;11.00;99.90;;;;;;5055789;28;20438;-78
2021/05/28 01:10:06;;;;;;;9.03;7.27;;;11.00;99.90;;;;;;5055615;28;20473;-78
2021/05/28 01:12:33;;;;;;;11.50;7.83;;;10.90;99.90;;;;;;5055668;28;20460;-78
2021/05/28 01:15:00;;;;;;;5.97;5.47;;;10.90;99.90;;;;;;5055636;28;20453;-78
2021/05/28 01:17:27;;;;;;;6.50;5.70;;;10.90;99.90;;;;;;5055347;28;20438;-77
2021/05/28 01:19:53;;;;;;;6.47;4.90;;;10.80;99.90;;;;;;5054201;28;20523;-75
2021/05/28 01:22:21;;;;;;;5.57;4.67;;;10.80;99.90;;;;;;5055506;28;20449;-75
2021/05/28 01:24:48;;;;;;;4.20;3.80;;;10.80;99.90;;;;;;5055354;28;20538;-75
2021/05/28 01:27:14;;;;;;;4.00;3.00;;;10.90;99.90;;;;;;5055379;28;20446;-75
2021/05/28 01:29:40;;;;;;;3.70;3.40;;;10.90;99.90;;;;;;5055005;28;20441;-75
2021/05/28 01:32:07;;;;;;;3.03;2.70;;;10.90;99.90;;;;;;5054933;28;20473;-75
2021/05/28 01:34:33;;;;;;;3.33;3.00;;;10.90;99.90;;;;;;5055238;28;20438;-75
2021/05/28 01:36:59;;;;;;;3.00;2.73;;;10.90;99.90;;;;;;5055236;28;20449;-75
2021/05/28 01:39:26;;;;;;;3.40;3.20;;;10.90;99.90;;;;;;5055059;28;20450;-75
2021/05/28 01:41:52;;;;;;;3.83;2.80;;;10.90;99.90;;;;;;5055147;28;20468;-78
2021/05/28 01:44:19;;;;;;;5.10;2.30;;;10.90;99.90;;;;;;5055033;28;20477;-78
2021/05/28 01:46:47;;;;;;;2.50;2.30;;;10.80;99.90;;;;;;5055070;28;20446;-75
2021/05/28 01:49:13;;;;;;;3.13;2.40;;;10.80;99.90;;;;;;5054954;28;20492;-75
2021/05/28 01:51:48;;;;;;;4.10;3.03;;;10.80;99.90;;;;;;5054861;28;20830;-75
2021/05/28 01:54:14;;;;;;;3.80;2.60;;;10.70;99.90;;;;;;5054955;28;20429;-75
2021/05/28 01:56:44;;;;;;;2.20;2.00;;;10.70;99.90;;;;;;5054800;28;20450;-75
2021/05/28 01:59:13;;;;;;;2.20;2.03;;;10.80;99.90;;;;;;5055602;28;20446;-81
2021/05/28 02:01:39;;;;;;;2.53;2.33;;;10.80;99.90;;;;;;5054651;28;20478;-81
2021/05/28 02:04:06;;;;;;;6.43;2.40;;;10.80;99.90;;;;;;5054319;28;20508;-75
2021/05/28 02:06:32;;;;;;;2.43;2.23;;;10.80;99.90;;;;;;5054604;28;20454;-75
2021/05/28 02:08:58;;;;;;;2.60;2.30;;;10.80;99.90;;;;;;5054277;28;20937;-75
2021/05/28 02:11:25;;;;;;;2.83;2.63;;;10.80;99.90;;;;;;5054481;28;20472;-75
2021/05/28 02:13:53;;;;;;;4.33;2.20;;;10.80;99.90;;;;;;5054531;28;20863;-75
2021/05/28 02:16:19;;;;;;;2.27;2.17;;;10.80;99.90;;;;;;5054137;28;20957;-75
2021/05/28 02:18:45;;;;;;;3.37;2.63;;;10.80;99.90;;;;;;5054413;28;20450;-75
2021/05/28 02:21:12;;;;;;;3.17;2.40;;;10.80;99.90;;;;;;5054037;28;20477;-75
2021/05/28 02:23:38;;;;;;;3.10;2.80;;;10.80;99.90;;;;;;5053943;28;20980;-76
2021/05/28 02:26:04;;;;;;;3.70;2.57;;;10.80;99.90;;;;;;5054247;28;20450;-75
2021/05/28 02:28:30;;;;;;;3.17;2.87;;;10.70;99.90;;;;;;5054234;28;20450;-75
2021/05/28 02:30:57;;;;;;;3.07;2.57;;;10.70;99.90;;;;;;5053523;28;20473;-76
2021/05/28 02:33:23;;;;;;;2.67;2.13;;;10.70;99.90;;;;;;5053919;28;20910;-81
2021/05/28 02:35:50;;;;;;;2.40;2.20;;;10.70;99.90;;;;;;5054080;28;20453;-81
2021/05/28 02:38:16;;;;;;;2.47;2.13;;;10.70;99.90;;;;;;5054056;28;20460;-81
2021/05/28 02:40:42;;;;;;;2.20;2.10;;;10.70;99.90;;;;;;5053640;28;21007;-77
2021/05/28 02:43:08;;;;;;;2.70;2.50;;;10.70;99.90;;;;;;5054005;28;20457;-77
2021/05/28 02:45:35;;;;;;;3.10;2.37;;;10.70;99.90;;;;;;5053849;28;20849;-77
2021/05/28 02:48:02;;;;;;;2.23;2.10;;;10.70;99.90;;;;;;5053896;28;20453;-77
2021/05/28 02:50:32;;;;;;;2.53;1.93;;;10.70;99.90;;;;;;5053816;28;20465;-77
2021/05/28 02:53:00;;;;;;;2.50;2.30;;;10.70;99.90;;;;;;5053828;28;20450;-80
2021/05/28 02:55:26;;;;;;;2.87;2.50;;;10.70;99.90;;;;;;5053797;28;20471;-81
2021/05/28 02:57:52;;;;;;;2.90;2.13;;;10.70;99.90;;;;;;5053739;28;20446;-81
2021/05/28 03:00:21;;;;;;;4.30;2.80;;;10.70;99.90;;;;;;5053288;28;20469;-81
2021/05/28 03:02:47;;;;;;;2.70;2.50;;;10.70;99.90;;;;;;5053695;28;20438;-81
2021/05/28 03:05:15;;;;;;;3.50;3.20;;;10.70;99.90;;;;;;5053216;28;20485;-81
2021/05/28 03:07:41;;;;;;;3.73;3.00;;;10.70;99.90;;;;;;5053538;28;20499;-81
2021/05/28 03:10:09;;;;;;;7.03;3.67;;;10.80;99.90;;;;;;5053231;28;20465;-81
2021/05/28 03:12:35;;;;;;;3.60;3.20;;;10.80;99.90;;;;;;5053210;28;20814;-81
2021/05/28 03:15:02;;;;;;;4.23;3.43;;;10.80;99.90;;;;;;5053458;28;20450;-81
2021/05/28 03:17:29;;;;;;;6.50;3.63;;;10.80;99.90;;;;;;5053373;28;20493;-81
2021/05/28 03:19:55;;;;;;;5.33;3.97;;;10.80;99.90;;;;;;5053359;28;20465;-81
2021/05/28 03:22:32;;;;;;;6.20;4.17;;;10.80;99.90;;;;;;5053371;28;20450;-78
2021/05/28 03:24:58;;;;;;;5.87;4.60;;;10.80;99.90;;;;;;5053318;28;20465;-78
2021/05/28 03:27:24;;;;;;;6.60;4.00;;;10.70;99.90;;;;;;5053337;28;20449;-78
2021/05/28 03:29:51;;;;;;;5.33;4.60;;;10.70;99.90;;;;;;5053202;28;20469;-78
2021/05/28 03:32:17;;;;;;;5.60;4.07;;;10.60;99.90;;;;;;5052928;28;20484;-78
2021/05/28 03:34:43;;;;;;;4.97;4.47;;;10.50;99.90;;;;;;5053247;28;20445;-78
2021/05/28 03:37:09;;;;;;;4.83;4.33;;;10.50;99.90;;;;;;5053240;28;20445;-78
2021/05/28 03:39:37;;;;;;;5.10;4.30;;;10.40;99.90;;;;;;5052804;28;20933;-78
2021/05/28 03:42:03;;;;;;;5.93;4.70;;;10.30;99.90;;;;;;5054273;28;20445;-78
2021/05/28 03:44:30;;;;;;;5.47;4.57;;;10.20;99.90;;;;;;5056969;28;20507;-78
2021/05/28 03:46:56;;;;;;;5.37;4.20;;;10.10;99.90;;;;;;5057289;28;20588;-78
2021/05/28 03:49:22;;;;;;;4.57;4.17;;;10.00;99.90;;;;;;5057240;28;20445;-78
2021/05/28 03:51:49;;;;;;;6.03;4.47;;;10.00;99.90;;;;;;5057240;28;20450;-77
2021/05/28 03:54:15;;;;;;;5.60;4.30;;;10.00;99.90;;;;;;5057111;28;20496;-78
2021/05/28 03:56:42;;;;;;;8.27;5.20;;;9.90;99.90;;;;;;5057114;28;20840;-78
2021/05/28 03:59:08;;;;;;;7.53;5.17;;;9.90;99.90;;;;;;5057050;28;20472;-78
2021/05/28 04:01:34;;;;;;;4.50;4.10;;;9.90;99.90;;;;;;5056941;28;20473;-78
2021/05/28 04:04:00;;;;;;;4.57;4.17;;;9.90;99.90;;;;;;5056566;28;20937;-78
2021/05/28 04:06:26;;;;;;;4.97;4.50;;;9.90;99.90;;;;;;5056918;28;20445;-78
2021/05/28 04:08:53;;;;;;;5.43;4.90;;;9.90;99.90;;;;;;5056538;28;20457;-78
2021/05/28 04:11:19;;;;;;;7.87;4.73;;;9.90;99.90;;;;;;5056730;28;20461;-78
2021/05/28 04:13:46;;;;;;;5.60;5.00;;;9.90;99.90;;;;;;5056815;28;20461;-78
2021/05/28 04:16:12;;;;;;;20.90;14.13;;;9.90;99.90;;;;;;5056735;28;20544;-78
2021/05/28 04:18:38;;;;;;;17.20;11.00;;;9.90;99.90;;;;;;5056665;28;20449;-78
2021/05/28 04:21:05;;;;;;;13.03;8.37;;;9.90;99.90;;;;;;5056548;28;20484;-78
2021/05/28 04:23:31;;;;;;;7.00;5.40;;;9.90;99.90;;;;;;5056632;28;20456;-78
2021/05/28 04:25:58;;;;;;;7.70;6.10;;;10.00;99.90;;;;;;5056476;28;20559;-78
2021/05/28 04:28:25;;;;;;;7.37;6.50;;;10.10;99.90;;;;;;5056527;28;20441;-78
2021/05/28 04:30:52;;;;;;;10.67;7.80;;;10.10;99.90;;;;;;5056397;28;20522;-78
2021/05/28 04:33:18;;;;;;;8.77;6.40;;;10.20;99.90;;;;;;5056007;28;20473;-78
2021/05/28 04:35:45;;;;;;;7.83;6.70;;;10.30;99.90;;;;;;5056075;28;20456;-78
2021/05/28 04:38:11;;;;;;;10.57;7.00;;;10.40;99.90;;;;;;5056061;28;20446;-78
2021/05/28 04:40:38;;;;;;;6.87;6.00;;;10.50;99.90;;;;;;5056226;28;20677;-81
2021/05/28 04:43:04;;;;;;;6.63;5.90;;;10.70;99.90;;;;;;5056309;28;20483;-81
2021/05/28 04:45:30;;;;;;;7.77;6.43;;;10.70;99.90;;;;;;5055950;28;20473;-81
2021/05/28 04:47:57;;;;;;;9.90;6.40;;;10.80;99.90;;;;;;5055861;28;20949;-81
2021/05/28 04:50:30;;;;;;;7.97;5.67;;;10.90;99.90;;;;;;5055791;28;20984;-81
2021/05/28 04:52:58;;;;;;;9.20;6.23;;;10.90;99.90;;;;;;5056325;28;20525;-78
2021/05/28 04:55:24;;;;;;;12.17;6.87;;;11.00;99.90;;;;;;5056041;28;20452;-78
2021/05/28 04:57:50;;;;;;;9.37;5.60;;;11.00;99.90;;;;;;5055948;28;20438;-77
2021/05/28 05:00:19;;;;;;;8.10;6.77;;;11.00;99.90;;;;;;5055867;28;20474;-77
2021/05/28 05:02:45;;;;;;;8.50;5.60;;;11.10;99.90;;;;;;5055613;28;20441;-77
2021/05/28 05:05:13;;;;;;;7.33;5.57;;;11.20;99.90;;;;;;5055761;28;20477;-75
2021/05/28 05:07:39;;;;;;;5.83;4.60;;;11.30;99.90;;;;;;5055754;28;20445;-75
2021/05/28 05:10:07;;;;;;;10.37;6.80;;;11.30;99.90;;;;;;5055670;28;20465;-75
2021/05/28 05:12:33;;;;;;;7.70;5.80;;;11.30;99.90;;;;;;5055720;28;20446;-77
2021/05/28 05:15:00;;;;;;;8.60;5.97;;;11.40;99.90;;;;;;5055621;28;20503;-77
2021/05/28 05:17:26;;;;;;;9.13;4.80;;;11.40;99.90;;;;;;5055599;28;20456;-77
2021/05/28 05:19:52;;;;;;;5.73;4.97;;;11.50;99.90;;;;;;5055441;28;20465;-77
2021/05/28 05:22:19;;;;;;;6.40;4.77;;;11.50;99.90;;;;;;5055497;28;20454;-77
2021/05/28 05:24:45;;;;;;;6.93;5.10;;;11.60;99.90;;;;;;5055358;28;20489;-77
2021/05/28 05:27:12;;;;;;;6.90;5.10;;;11.60;99.90;;;;;;5055457;28;20449;-77
2021/05/28 05:29:39;;;;;;;5.30;4.77;;;11.50;99.90;;;;;;5054993;28;20454;-77
2021/05/28 05:32:05;;;;;;;7.87;5.10;;;11.50;99.90;;;;;;5054988;28;20488;-78
2021/05/28 05:34:32;;;;;;;6.33;5.00;;;11.60;99.90;;;;;;5055278;28;20437;-77
2021/05/28 05:37:00;;;;;;;7.03;5.03;;;11.60;99.90;;;;;;5054960;28;20442;-77
2021/05/28 05:39:27;;;;;;;9.17;5.40;;;11.60;99.90;;;;;;5054864;28;20460;-77
2021/05/28 05:41:54;;;;;;;6.17;4.90;;;11.60;99.90;;;;;;5055166;28;20480;-77
2021/05/28 05:44:20;;;;;;;6.87;4.60;;;11.70;99.90;;;;;;5054781;28;21033;-78
2021/05/28 05:46:46;;;;;;;7.30;5.27;;;11.80;99.90;;;;;;5055084;28;20507;-77
2021/05/28 05:49:12;;;;;;;7.60;5.40;;;11.90;99.90;;;;;;5055059;28;20797;-77
2021/05/28 05:51:38;;;;;;;10.13;4.70;;;12.10;99.90;;;;;;5054893;28;20473;-77
2021/05/28 05:54:06;;;;;;;7.00;4.97;;;12.10;99.90;;;;;;5054610;28;20464;-77
2021/05/28 05:56:33;;;;;;;8.43;5.10;;;12.20;99.90;;;;;;5054871;28;20442;-79
2021/05/28 05:58:59;;;;;;;7.60;5.50;;;12.30;99.90;;;;;;5054794;28;20445;-77
2021/05/28 06:01:25;;;;;;;10.30;5.53;;;12.50;99.90;;;;;;5054433;28;20457;-75
2021/05/28 06:03:52;;;;;;;6.97;5.60;;;12.70;99.90;;;;;;5054356;28;20450;-78
2021/05/28 06:06:18;;;;;;;9.40;6.23;;;12.90;99.90;;;;;;5053971;28;20489;-78
2021/05/28 06:08:44;;;;;;;10.00;6.73;;;13.10;99.90;;;;;;5054609;28;20452;-78
2021/05/28 06:11:11;;;;;;;8.03;5.50;;;13.40;99.90;;;;;;5054575;28;20497;-75
2021/05/28 06:13:38;;;;;;;8.20;5.67;;;13.60;99.90;;;;;;5054573;28;20478;-75
2021/05/28 06:16:05;;;;;;;8.63;6.37;;;13.70;99.90;;;;;;5054508;28;20448;-76
2021/05/28 06:18:31;;;;;;;6.40;5.10;;;14.00;99.90;;;;;;5054422;28;20446;-75
2021/05/28 06:20:58;;;;;;;8.73;6.00;;;14.30;99.90;;;;;;5054011;28;20465;-76
2021/05/28 06:23:24;;;;;;;7.27;5.67;;;14.60;99.90;;;;;;5054388;28;20459;-79
2021/05/28 06:25:50;;;;;;;7.07;5.50;;;14.90;99.90;;;;;;5054268;28;20469;-79
2021/05/28 06:28:16;;;;;;;6.53;5.27;;;15.00;99.90;;;;;;5053952;28;20873;-79
2021/05/28 06:30:43;;;;;;;5.03;4.63;;;15.00;99.90;;;;;;5054153;28;20466;-79
2021/05/28 06:33:11;;;;;;;6.43;5.30;;;14.90;99.90;;;;;;5053733;28;20485;-79
2021/05/28 06:35:38;;;;;;;5.80;5.30;;;14.70;99.90;;;;;;5054112;28;20449;-79
2021/05/28 06:38:05;;;;;;;6.23;5.40;;;14.70;99.90;;;;;;5054138;28;20452;-79
2021/05/28 06:40:32;;;;;;;7.00;5.77;;;14.90;99.90;;;;;;5053956;28;20469;-79
2021/05/28 06:42:59;;;;;;;10.50;5.33;;;15.10;99.90;;;;;;5053711;28;20536;-76
2021/05/28 06:45:25;;;;;;;7.60;5.13;;;15.30;99.90;;;;;;5053557;28;20603;-76
2021/05/28 06:47:52;;;;;;;9.07;5.73;;;16.10;99.90;;;;;;5053919;28;20449;-76
2021/05/28 06:50:18;;;;;;;6.33;5.37;;;17.00;99.90;;;;;;5053833;28;20492;-76
2021/05/28 06:52:46;;;;;;;8.67;5.73;;;17.80;99.90;;;;;;5053867;28;20446;-76
2021/05/28 06:55:12;;;;;;;5.70;5.03;;;18.60;99.90;;;;;;5053521;28;20791;-76
2021/05/28 06:57:39;;;;;;;6.20;4.80;;;19.10;99.90;;;;;;5054090;28;20437;-81
2021/05/28 07:00:07;;;;;;;6.60;4.80;;;18.90;99.90;;;;;;5053574;28;20997;-80
2021/05/28 07:02:33;;;;;;;4.97;4.57;;;18.80;99.90;;;;;;5054109;28;20468;-81
2021/05/28 07:05:00;;;;;;;6.30;4.60;;;18.70;99.90;;;;;;5053572;28;20477;-81
2021/05/28 07:07:26;;;;;;;5.37;4.83;;;18.60;99.90;;;;;;5053310;28;20449;-78
2021/05/28 07:09:53;;;;;;;4.20;3.80;;;18.50;99.90;;;;;;5053518;28;20526;-78
2021/05/28 07:12:19;;;;;;;5.87;4.53;;;19.10;99.90;;;;;;5053529;28;20507;-76
2021/05/28 07:14:45;;;;;;;4.63;4.18;;;20.30;99.30;;;;;;5053554;28;20279;-78
2021/05/28 07:17:11;;;;;;;6.13;4.60;;;21.60;93.50;;;;;;5053692;28;20209;-78
2021/05/28 07:19:37;;;;;;;4.90;4.40;;;22.50;90.80;;;;;;5053142;28;20221;-78
2021/05/28 07:22:05;;;;;;;4.38;3.90;;;23.30;87.20;;;;;;5053168;28;20204;-81
2021/05/28 07:24:31;;;;;;;3.78;3.28;;;24.00;81.30;;;;;;5053306;28;20236;-81
2021/05/28 07:26:58;;;;;;;3.83;3.53;;;24.70;72.40;;;;;;5053615;28;20199;-81
2021/05/28 07:29:24;;;;;;;3.97;3.67;;;25.10;69.40;;;;;;5053029;28;20661;-81
2021/05/28 07:31:50;;;;;;;3.90;3.58;;;25.60;66.20;;;;;;5052862;28;20732;-81
2021/05/28 07:34:17;;;;;;;4.40;4.00;;;25.80;65.10;;;;;;5053445;28;20204;-81
2021/05/28 07:36:43;;;;;;;3.72;3.50;;;25.90;63.10;;;;;;5053237;28;20206;-80
2021/05/28 07:39:11;;;;;;;4.80;3.55;;;25.90;59.60;;;;;;5053197;28;20200;-81
2021/05/28 07:41:37;;;;;;;4.28;3.97;;;25.20;60.60;;;;;;5053151;28;20223;-76
2021/05/28 07:44:05;;;;;;;5.57;3.63;;;25.10;61.80;;;;;;5053173;28;20202;-76
2021/05/28 07:46:32;;;;;;;4.40;4.00;;;24.80;60.80;;;;;;5053060;28;20227;-79
2021/05/28 07:48:59;;;;;;;3.67;3.38;;;24.80;61.10;;;;;;5053292;28;20297;-80
2021/05/28 07:51:25;;;;;;;3.20;3.00;;;25.60;60.10;;;;;;5053035;28;20219;-79
2021/05/28 07:53:51;;;;;;;3.92;3.60;;;26.70;56.60;;;;;;5053113;28;20216;-80
2021/05/28 07:56:18;;;;;;;3.35;3.05;;;27.50;52.70;;;;;;5053050;28;20687;-77
2021/05/28 07:58:44;;;;;;;2.95;2.75;;;27.10;52.70;;;;;;5053014;28;20210;-77
2021/05/28 08:01:10;;;;;;;2.60;2.40;;;26.20;53.60;;;;;;5052944;28;20230;-76
2021/05/28 08:03:36;;;;;;;3.35;3.15;;;25.80;53.30;;;;;;5052753;28;20195;-81
2021/05/28 08:06:03;;;;;;;3.38;3.20;;;25.20;53.60;;;;;;5052909;28;20225;-81
2021/05/28 08:08:29;;;;;;;3.13;2.92;;;24.30;55.60;;;;;;5052950;28;20211;-81
2021/05/28 08:10:56;;;;;;;3.67;3.38;;;23.30;57.00;;;;;;5052889;28;20222;-76
2021/05/28 08:13:23;;;;;;;3.88;3.53;;;22.50;58.40;;;;;;5052948;28;20252;-78
2021/05/28 08:15:50;;;;;;;4.10;3.65;;;21.80;61.70;;;;;;5052965;28;20211;-81
2021/05/28 08:18:16;;;;;;;3.17;2.97;;;21.40;62.20;;;;;;5052881;28;20213;-81
2021/05/28 08:20:42;;;;;;;3.17;2.88;;;21.10;62.70;;;;;;5052531;28;20292;-78
2021/05/28 08:23:09;;;;;;;3.50;3.20;;;20.70;64.90;;;;;;5052517;28;20206;-78
2021/05/28 08:25:35;;;;;;;4.80;2.60;;;20.40;64.00;;;;;;5052743;28;20226;-79
2021/05/28 08:28:01;;;;;;;2.93;2.63;;;20.30;65.50;;;;;;5053925;28;20237;-80
2021/05/28 08:30:28;;;;;;;2.90;2.70;;;20.40;65.70;;;;;;5056405;28;20473;-81
2021/05/28 08:32:54;;;;;;;3.23;3.03;;;20.30;65.60;;;;;;5056333;28;20487;-81
2021/05/28 08:35:21;;;;;;;3.70;3.30;;;20.00;66.40;;;;;;5056410;28;20777;-81
2021/05/28 08:37:47;;;;;;;3.00;2.70;;;20.00;63.60;;;;;;5056677;28;20441;-81
2021/05/28 08:40:15;;;;;;;4.30;3.70;;;19.60;66.10;;;;;;5056323;28;20472;-81
2021/05/28 08:42:43;;;;;;;3.13;2.93;;;19.30;66.20;;;;;;5056316;28;20449;-81
2021/05/28 08:45:10;;;;;;;4.93;3.50;;;18.90;68.80;;;;;;5055778;28;21011;-81
2021/05/28 08:47:39;;;;;;;3.13;2.87;;;18.90;70.50;;;;;;5056190;28;20445;-81
2021/05/28 08:50:07;;;;;;;3.57;3.27;;;19.60;70.30;;;;;;5056130;28;20465;-81
2021/05/28 08:52:33;;;;;;;3.73;3.43;;;20.50;66.40;;;;;;5056155;28;20452;-79
2021/05/28 08:54:59;;;;;;;3.90;3.20;;;20.90;64.40;;;;;;5056084;28;20445;-79
2021/05/28 08:57:26;;;;;;;2.97;2.73;;;20.90;66.60;;;;;;5055780;28;20844;-81
2021/05/28 08:59:52;;;;;;;5.40;2.83;;;20.90;66.60;;;;;;5055907;28;20476;-81
2021/05/28 09:02:29;;;;;;;3.60;3.00;;;20.60;65.50;;;;;;5055987;28;20464;-79
2021/05/28 09:05:11;;;;;;;3.70;3.43;;;20.00;66.50;;;;;;5055466;28;21066;-76
2021/05/28 09:07:40;;;;;;;4.90;3.73;;;19.50;65.50;;;;;;5055598;28;20492;-79
2021/05/28 09:10:26;;;;;;;3.50;3.20;;;19.00;66.80;;;;;;5056021;28;20472;-79
2021/05/28 09:12:52;;;;;;;4.87;3.10;;;18.70;69.00;;;;;;5055463;28;20452;-79
2021/05/28 09:15:19;;;;;;;3.53;3.20;;;18.50;67.90;;;;;;5055726;28;20453;-79
2021/05/28 09:17:50;;;;;;;3.80;3.43;;;18.40;70.10;;;;;;5055596;28;20457;-79
2021/05/28 09:20:19;;;;;;;3.23;2.93;;;18.20;69.90;;;;;;5055791;28;20469;-76
2021/05/28 09:22:46;;;;;;;3.80;3.53;;;18.20;70.00;;;;;;5055550;28;20450;-76
2021/05/28 09:25:13;;;;;;;3.13;2.60;;;18.20;69.40;;;;;;5055714;28;20488;-76
2021/05/28 09:27:40;;;;;;;3.17;2.97;;;18.00;68.90;;;;;;5055341;28;20945;-81
2021/05/28 09:30:09;;;;;;;3.37;3.10;;;17.80;69.90;;;;;;5055402;28;20470;-81
2021/05/28 09:32:38;;;;;;;4.07;3.47;;;17.70;70.80;;;;;;5054974;28;20485;-81
2021/05/28 09:35:08;;;;;;;3.43;2.60;;;17.70;69.60;;;;;;5055604;28;20441;-79
2021/05/28 09:37:40;;;;;;;2.80;2.60;;;17.70;72.00;;;;;;5055313;28;20469;-79
2021/05/28 09:40:09;;;;;;;3.80;2.67;;;17.90;70.10;;;;;;5054094;28;20468;-79
2021/05/28 09:42:53;;;;;;;2.80;2.60;;;18.00;71.30;;;;;;5054915;28;20964;-79
2021/05/28 09:45:26;;;;;;;3.37;3.03;;;18.00;71.00;;;;;;5055660;28;20474;-79
2021/05/28 09:47:52;;;;;;;3.80;3.50;;;18.10;73.10;;;;;;5054780;28;20800;-79
2021/05/28 09:50:18;;;;;;;3.47;3.27;;;18.10;73.90;;;;;;5054969;28;20478;-79
2021/05/28 09:52:45;;;;;;;2.70;2.50;;;18.10;74.10;;;;;;5054697;28;20788;-79
2021/05/28 09:55:15;;;;;;;3.20;2.87;;;18.40;72.30;;;;;;5054580;28;20438;-79
2021/05/28 09:57:43;;;;;;;5.13;3.03;;;18.60;71.40;;;;;;5054894;28;20540;-79
2021/05/28 10:00:20;;;;;;;4.50;4.20;;;18.70;71.00;;;;;;5054778;28;20531;-79
2021/05/28 10:02:47;;;;;;;3.83;3.13;;;18.70;72.00;;;;;;5054788;28;20425;-79
2021/05/28 10:05:21;;;;;;;3.80;3.47;;;18.50;71.70;;;;;;5054660;28;20489;-76
2021/05/28 10:07:50;;;;;;;3.50;3.20;;;18.40;72.10;;;;;;5054773;28;20426;-76
2021/05/28 10:10:17;;;;;;;4.60;4.27;;;18.20;72.00;;;;;;5054617;28;20528;-76
2021/05/28 10:12:45;;;;;;;3.30;3.10;;;18.10;70.40;;;;;;5054591;28;20446;-76
2021/05/28 10:15:13;;;;;;;5.40;3.30;;;18.10;71.50;;;;;;5054267;28;20438;-76
2021/05/28 10:17:39;;;;;;;4.03;3.20;;;18.10;70.70;;;;;;5054478;28;20446;-76
2021/05/28 10:20:07;;;;;;;3.50;3.20;;;18.10;70.10;;;;;;5054412;28;20477;-76
2021/05/28 10:22:33;;;;;;;2.70;2.50;;;18.10;71.60;;;;;;5054414;28;20449;-76
2021/05/28 10:25:04;;;;;;;4.30;3.87;;;18.10;71.10;;;;;;5053918;28;20845;-76
2021/05/28 10:27:30;;;;;;;5.10;3.50;;;18.00;72.50;;;;;;5054175;28;20870;-77
2021/05/28 10:29:56;;;;;;;3.57;3.23;;;18.00;72.90;;;;;;5054159;28;20470;-76
2021/05/28 10:32:23;;;;;;;3.50;3.20;;;18.00;73.10;;;;;;5053897;28;20547;-79
2021/05/28 10:35:14;;;;;;;3.13;2.93;;;18.30;70.50;;;;;;5054207;28;20498;-79
2021/05/28 10:37:41;;;;;;;3.23;2.93;;;18.40;71.00;;;;;;5053809;28;20529;-79
2021/05/28 10:40:26;;;;;;;3.17;2.67;;;18.50;72.00;;;;;;5053652;28;20976;-79
2021/05/28 10:43:04;;;;;;;2.53;2.43;;;18.50;69.60;;;;;;5053902;28;20445;-80
2021/05/28 10:45:56;;;;;;;3.17;2.90;;;18.50;71.40;;;;;;5053730;28;20535;-79
2021/05/28 10:48:57;;;;;;;3.40;3.13;;;18.60;73.20;;;;;;5053855;28;20454;-79
2021/05/28 10:51:59;;;;;;;4.40;3.60;;;19.20;71.00;;;;;;5048390;28;20492;-79
2021/05/28 10:54:27;;;;;;;4.10;3.70;;;20.10;69.50;;;;;;5051151;28;20449;-78
2021/05/28 10:56:54;;;;;;;7.93;3.87;;;20.10;69.20;;;;;;5053435;28;20820;-78
2021/05/28 10:59:22;;;;;;;3.40;3.20;;;19.80;70.00;;;;;;5053691;28;20453;-78
2021/05/28 11:01:51;;;;;;;3.73;3.43;;;19.50;70.90;;;;;;5053624;28;20497;-78
2021/05/28 11:04:21;;;;;;;4.57;3.23;;;19.30;70.30;;;;;;5053682;28;20536;-78
2021/05/28 11:07:15;;;;;;;3.93;3.63;;;19.10;68.60;;;;;;5053714;28;20515;-78
2021/05/28 11:09:43;;;;;;;3.33;2.90;;;18.90;69.00;;;;;;5053524;28;20446;-78
2021/05/28 11:12:12;;;;;;;3.77;3.57;;;18.80;71.20;;;;;;5053562;28;20457;-78
2021/05/28 11:14:41;;;;;;;4.60;3.60;;;18.70;72.10;;;;;;5053513;28;20495;-78
2021/05/28 11:17:10;;;;;;;3.30;2.97;;;18.70;71.80;;;;;;5053206;28;20988;-79
2021/05/28 11:19:43;;;;;;;2.93;2.73;;;18.80;71.50;;;;;;5053410;28;20445;-79
2021/05/28 11:22:12;;;;;;;2.87;2.67;;;18.80;70.80;;;;;;5053403;28;20964;-79
2021/05/28 11:24:43;;;;;;;3.40;3.20;;;18.90;69.20;;;;;;5053310;28;20460;-79
2021/05/28 11:27:12;;;;;;;5.67;2.53;;;18.80;69.60;;;;;;5054079;28;20457;-78
2021/05/28 11:29:38;;;;;;;3.33;2.70;;;18.90;68.90;;;;;;5053254;28;20863;-78
2021/05/28 11:32:29;;;;;;;2.20;2.10;;;18.80;67.10;;;;;;5052859;28;20486;-78
2021/05/28 11:35:13;;;;;;;4.30;2.87;;;18.60;67.60;;;;;;5053279;28;20469;-78
2021/05/28 11:37:40;;;;;;;2.20;1.90;;;18.70;66.70;;;;;;5053037;28;20449;-78
2021/05/28 11:40:14;;;;;;;2.93;2.53;;;18.60;69.00;;;;;;5052826;28;20465;-78
2021/05/28 11:42:42;;;;;;;2.97;2.77;;;18.60;69.40;;;;;;5053195;28;20449;-78
2021/05/28 11:45:11;;;;;;;3.10;2.80;;;18.70;70.40;;;;;;5053099;28;20482;-78
2021/05/28 11:47:37;;;;;;;2.20;2.10;;;18.70;69.40;;;;;;5053146;28;20457;-78
2021/05/28 11:50:06;;;;;;;2.13;1.90;;;18.80;67.70;;;;;;5052695;28;20473;-78
2021/05/28 11:52:32;;;;;;;1.80;1.70;;;18.90;65.10;;;;;;5052767;28;20476;-78
2021/05/28 11:55:06;;;;;;;3.30;1.97;;;18.70;63.50;;;;;;5052968;28;20441;-78
2021/05/28 11:57:33;;;;;;;2.53;2.33;;;18.80;66.70;;;;;;5053046;28;20449;-78
2021/05/28 12:00:04;;;;;;;2.50;1.87;;;18.70;66.40;;;;;;5052689;28;20465;-78
2021/05/28 12:02:53;;;;;;;2.00;1.87;;;18.70;66.40;;;;;;5053163;28;20526;-76
2021/05/28 12:05:24;;;;;;;2.13;1.93;;;18.60;64.90;;;;;;5056694;28;20972;-76
2021/05/28 12:07:52;;;;;;;2.33;2.23;;;18.50;67.70;;;;;;5056670;28;20453;-76
2021/05/28 12:10:18;;;;;;;2.00;1.90;;;18.60;65.60;;;;;;5056856;28;20470;-76
2021/05/28 12:12:57;;;;;;;2.50;2.40;;;18.60;65.40;;;;;;5056873;28;20450;-77
2021/05/28 12:15:26;;;;;;;2.53;2.33;;;18.40;63.80;;;;;;5056556;28;20425;-76
2021/05/28 12:17:52;;;;;;;2.20;1.93;;;18.20;62.40;;;;;;5056738;28;20441;-76
2021/05/28 12:20:22;;;;;;;1.90;1.80;;;17.90;63.10;;;;;;5056703;28;20469;-76
2021/05/28 12:23:07;;;;;;;3.20;2.33;;;17.60;66.00;;;;;;5056733;28;20457;-76
2021/05/28 12:25:35;;;;;;;3.60;2.33;;;17.40;65.70;;;;;;5056629;28;20473;-76
2021/05/28 12:28:10;;;;;;;2.07;1.97;;;17.20;66.90;;;;;;5056604;28;20453;-76
2021/05/28 12:30:37;;;;;;;1.93;1.80;;;17.10;66.50;;;;;;5056495;28;20468;-76
2021/05/28 12:33:04;;;;;;;2.60;1.97;;;17.20;65.40;;;;;;5056313;28;20488;-76
2021/05/28 12:35:30;;;;;;;4.30;1.70;;;17.10;66.80;;;;;;5056198;28;20445;-76
2021/05/28 12:38:09;;;;;;;2.10;1.70;;;17.10;64.40;;;;;;5056187;28;20438;-76
2021/05/28 12:40:36;;;;;;;2.03;1.80;;;17.10;64.80;;;;;;5056278;28;20502;-76
2021/05/28 12:43:05;;;;;;;1.90;1.80;;;17.20;63.60;;;;;;5056351;28;20450;-76
2021/05/28 12:45:50;;;;;;;2.37;2.17;;;17.40;63.20;;;;;;5056184;28;20488;-76
2021/05/28 12:48:17;;;;;;;2.00;1.90;;;17.50;65.50;;;;;;5056749;28;20430;-76
2021/05/28 12:50:45;;;;;;;3.03;2.13;;;17.40;66.80;;;;;;5055791;28;20867;-76